sensor_id;sensor_type;location;lat;lon;timestamp;pressure;altitude;pressure_sealevel;temperature;humidity
13476;BME280;6810;63.824;20.288;2023-10-31T07:02:33;101290.84;;;-6.09;69.71
13476;BME280;6810;63.824;20.288;2023-10-31T07:05:20;101295.28;;;-6.05;69.70
13476;BME280;6810;63.824;20.288;2023-10-31T07:08:08;101289.25;;;-6.03;70.15
13476;BME280;6810;63.824;20.288;2023-10-31T07:10:55;101300.53;;;-6.01;69.96
13476;BME280;6810;63.824;20.288;2023-10-31T07:13:43;101310.09;;;-5.97;70.00
13476;BME280;6810;63.824;20.288;2023-10-31T07:16:31;101309.28;;;-5.94;70.01
13476;BME280;6810;63.824;20.288;2023-10-31T07:19:19;101295.50;;;-5.92;70.16
13476;BME280;6810;63.824;20.288;2023-10-31T07:22:06;101306.81;;;-5.87;70.38
13476;BME280;6810;63.824;20.288;2023-10-31T07:24:53;101306.00;;;-5.84;70.19
13476;BME280;6810;63.824;20.288;2023-10-31T07:27:40;101309.50;;;-5.79;70.39
13476;BME280;6810;63.824;20.288;2023-10-31T07:30:27;101258.09;;;-6.04;69.79
13476;BME280;6810;63.824;20.288;2023-10-31T07:33:14;101302.66;;;-5.74;70.45
13476;BME280;6810;63.824;20.288;2023-10-31T07:36:01;101298.38;;;-5.72;70.65
13476;BME280;6810;63.824;20.288;2023-10-31T07:38:48;101298.44;;;-5.69;70.20
13476;BME280;6810;63.824;20.288;2023-10-31T07:41:35;101297.59;;;-5.67;70.04
13476;BME280;6810;63.824;20.288;2023-10-31T07:44:23;101299.38;;;-5.64;70.14
13476;BME280;6810;63.824;20.288;2023-10-31T07:47:10;101298.56;;;-5.62;70.25
13476;BME280;6810;63.824;20.288;2023-10-31T07:49:57;101300.25;;;-5.62;70.13
13476;BME280;6810;63.824;20.288;2023-10-31T07:52:44;101293.44;;;-5.57;70.16
13476;BME280;6810;63.824;20.288;2023-10-31T07:55:32;101299.56;;;-5.54;70.63
13476;BME280;6810;63.824;20.288;2023-10-31T07:58:19;101283.03;;;-5.59;70.51
13476;BME280;6810;63.824;20.288;2023-10-31T08:01:06;101296.97;;;-5.52;70.81
13476;BME280;6810;63.824;20.288;2023-10-31T08:03:53;101294.50;;;-5.45;69.90
13476;BME280;6810;63.824;20.288;2023-10-31T08:06:40;101298.84;;;-5.42;70.10
13476;BME280;6810;63.824;20.288;2023-10-31T08:09:28;101302.38;;;-5.39;70.40
13476;BME280;6810;63.824;20.288;2023-10-31T08:12:15;101298.94;;;-5.36;70.19
13476;BME280;6810;63.824;20.288;2023-10-31T08:15:05;101288.47;;;-5.42;70.68
13476;BME280;6810;63.824;20.288;2023-10-31T08:17:52;101306.00;;;-5.29;70.48
13476;BME280;6810;63.824;20.288;2023-10-31T08:20:39;101309.44;;;-5.28;70.68
13476;BME280;6810;63.824;20.288;2023-10-31T08:23:28;101314.72;;;-5.22;70.11
13476;BME280;6810;63.824;20.288;2023-10-31T08:26:15;101311.34;;;-5.18;70.02
13476;BME280;6810;63.824;20.288;2023-10-31T08:29:02;101307.03;;;-5.15;70.38
13476;BME280;6810;63.824;20.288;2023-10-31T08:31:49;101307.13;;;-5.10;70.33
13476;BME280;6810;63.824;20.288;2023-10-31T08:34:36;101304.56;;;-5.07;70.61
13476;BME280;6810;63.824;20.288;2023-10-31T08:37:23;101308.06;;;-5.04;70.35
13476;BME280;6810;63.824;20.288;2023-10-31T08:40:11;101315.94;;;-4.99;70.18
13476;BME280;6810;63.824;20.288;2023-10-31T08:42:58;101315.97;;;-4.95;70.39
13476;BME280;6810;63.824;20.288;2023-10-31T08:45:45;101324.69;;;-4.91;70.21
13476;BME280;6810;63.824;20.288;2023-10-31T08:48:32;101316.97;;;-4.87;71.01
13476;BME280;6810;63.824;20.288;2023-10-31T08:51:19;101323.94;;;-4.83;69.98
13476;BME280;6810;63.824;20.288;2023-10-31T08:54:06;101304.84;;;-4.88;70.81
13476;BME280;6810;63.824;20.288;2023-10-31T08:56:53;101319.75;;;-4.73;70.97
13476;BME280;6810;63.824;20.288;2023-10-31T08:59:40;101325.00;;;-4.69;70.58
13476;BME280;6810;63.824;20.288;2023-10-31T09:02:29;101318.97;;;-4.66;70.56
13476;BME280;6810;63.824;20.288;2023-10-31T09:05:16;101289.38;;;-4.77;70.27
13476;BME280;6810;63.824;20.288;2023-10-31T09:08:03;101326.91;;;-4.56;70.43
13476;BME280;6810;63.824;20.288;2023-10-31T09:10:50;101321.75;;;-4.51;70.67
13476;BME280;6810;63.824;20.288;2023-10-31T09:13:37;101331.34;;;-4.46;71.11
13476;BME280;6810;63.824;20.288;2023-10-31T09:16:24;101334.00;;;-4.41;70.18
13476;BME280;6810;63.824;20.288;2023-10-31T09:19:11;101330.59;;;-4.37;70.54
13476;BME280;6810;63.824;20.288;2023-10-31T09:21:58;101325.47;;;-4.33;70.43
13476;BME280;6810;63.824;20.288;2023-10-31T09:24:45;101293.19;;;-4.48;70.92
13476;BME280;6810;63.824;20.288;2023-10-31T09:27:32;101329.03;;;-4.22;70.52
13476;BME280;6810;63.824;20.288;2023-10-31T09:30:19;101328.22;;;-4.16;70.21
13476;BME280;6810;63.824;20.288;2023-10-31T09:33:10;101319.50;;;-4.21;71.39
13476;BME280;6810;63.824;20.288;2023-10-31T09:35:57;101332.66;;;-4.06;71.26
13476;BME280;6810;63.824;20.288;2023-10-31T09:38:44;101325.78;;;-4.01;70.33
13476;BME280;6810;63.824;20.288;2023-10-31T09:41:31;101327.56;;;-3.96;71.13
13476;BME280;6810;63.824;20.288;2023-10-31T09:44:21;101324.16;;;-3.90;71.26
13476;BME280;6810;63.824;20.288;2023-10-31T09:47:08;101330.31;;;-3.84;70.23
13476;BME280;6810;63.824;20.288;2023-10-31T09:49:55;101300.69;;;-3.96;71.25
13476;BME280;6810;63.824;20.288;2023-10-31T09:52:44;101311.28;;;-3.77;71.23
13476;BME280;6810;63.824;20.288;2023-10-31T09:55:32;101315.69;;;-3.67;71.68
13476;BME280;6810;63.824;20.288;2023-10-31T09:58:19;101316.63;;;-3.59;70.38
13476;BME280;6810;63.824;20.288;2023-10-31T10:01:06;101321.88;;;-3.53;70.46
13476;BME280;6810;63.824;20.288;2023-10-31T10:03:54;101314.97;;;-3.50;70.40
13476;BME280;6810;63.824;20.288;2023-10-31T10:07:13;101318.53;;;-3.39;70.93
13476;BME280;6810;63.824;20.288;2023-10-31T10:10:00;101306.38;;;-3.36;71.77
13476;BME280;6810;63.824;20.288;2023-10-31T10:12:47;101310.81;;;-3.27;71.43
13476;BME280;6810;63.824;20.288;2023-10-31T10:15:48;101314.34;;;-3.19;71.75
13476;BME280;6810;63.824;20.288;2023-10-31T10:18:35;101315.22;;;-3.13;71.25
13476;BME280;6810;63.824;20.288;2023-10-31T10:21:23;101308.31;;;-3.09;71.57
13476;BME280;6810;63.824;20.288;2023-10-31T10:24:10;101285.66;;;-3.19;70.95
13476;BME280;6810;63.824;20.288;2023-10-31T10:26:57;101304.84;;;-3.02;71.51
13476;BME280;6810;63.824;20.288;2023-10-31T10:29:44;101314.50;;;-2.91;71.98
13476;BME280;6810;63.824;20.288;2023-10-31T10:32:31;101303.22;;;-2.85;71.98
13476;BME280;6810;63.824;20.288;2023-10-31T10:35:18;101308.47;;;-2.78;70.69
13476;BME280;6810;63.824;20.288;2023-10-31T10:38:23;101311.09;;;-2.73;71.00
13476;BME280;6810;63.824;20.288;2023-10-31T10:41:12;101309.41;;;-2.68;71.21
13476;BME280;6810;63.824;20.288;2023-10-31T10:44:06;101296.38;;;-2.65;71.05
13476;BME280;6810;63.824;20.288;2023-10-31T10:46:55;101288.56;;;-2.61;70.82
13476;BME280;6810;63.824;20.288;2023-10-31T10:49:43;101281.63;;;-2.56;71.00
13476;BME280;6810;63.824;20.288;2023-10-31T10:52:47;101276.41;;;-2.53;71.08
13476;BME280;6810;63.824;20.288;2023-10-31T10:55:41;101271.19;;;-2.53;70.65
13476;BME280;6810;63.824;20.288;2023-10-31T10:58:44;101271.22;;;-2.45;70.83
13476;BME280;6810;63.824;20.288;2023-10-31T11:01:35;101265.13;;;-2.43;71.76
13476;BME280;6810;63.824;20.288;2023-10-31T11:04:22;101266.03;;;-2.39;71.58
13476;BME280;6810;63.824;20.288;2023-10-31T11:07:09;101264.28;;;-2.36;71.90
13476;BME280;6810;63.824;20.288;2023-10-31T11:09:57;101265.16;;;-2.32;71.10
13476;BME280;6810;63.824;20.288;2023-10-31T11:12:45;101259.94;;;-2.29;72.15
13476;BME280;6810;63.824;20.288;2023-10-31T11:15:53;101239.94;;;-2.35;71.87
13476;BME280;6810;63.824;20.288;2023-10-31T11:18:42;101251.28;;;-2.24;72.00
13476;BME280;6810;63.824;20.288;2023-10-31T11:21:31;101252.16;;;-2.19;71.46
13476;BME280;6810;63.824;20.288;2023-10-31T11:24:18;101258.22;;;-2.15;71.20
13476;BME280;6810;63.824;20.288;2023-10-31T11:27:06;101253.91;;;-2.12;71.42
13476;BME280;6810;63.824;20.288;2023-10-31T11:29:54;101260.84;;;-2.08;71.79
13476;BME280;6810;63.824;20.288;2023-10-31T11:32:47;101259.13;;;-2.03;71.46
13476;BME280;6810;63.824;20.288;2023-10-31T11:35:35;101260.84;;;-1.97;72.15
13476;BME280;6810;63.824;20.288;2023-10-31T11:38:31;101258.25;;;-1.94;70.98
13476;BME280;6810;63.824;20.288;2023-10-31T11:41:18;101258.28;;;-1.91;70.92
13476;BME280;6810;63.824;20.288;2023-10-31T11:44:05;101257.41;;;-1.89;72.01
13476;BME280;6810;63.824;20.288;2023-10-31T11:46:52;101261.75;;;-1.86;71.41
13476;BME280;6810;63.824;20.288;2023-10-31T11:49:46;101254.78;;;-1.84;72.15
13476;BME280;6810;63.824;20.288;2023-10-31T11:52:33;101233.91;;;-1.95;71.60
13476;BME280;6810;63.824;20.288;2023-10-31T11:55:21;101243.47;;;-1.83;71.29
13476;BME280;6810;63.824;20.288;2023-10-31T11:58:22;101260.00;;;-1.80;71.57
13476;BME280;6810;63.824;20.288;2023-10-31T12:01:10;101260.91;;;-1.79;71.16
13476;BME280;6810;63.824;20.288;2023-10-31T12:03:57;101257.41;;;-1.83;71.83
13476;BME280;6810;63.824;20.288;2023-10-31T12:06:44;101258.28;;;-1.76;72.18
13476;BME280;6810;63.824;20.288;2023-10-31T12:09:31;101262.63;;;-1.75;71.52
13476;BME280;6810;63.824;20.288;2023-10-31T12:12:30;101267.84;;;-1.72;72.00
13476;BME280;6810;63.824;20.288;2023-10-31T12:15:17;101267.84;;;-1.72;71.39
13476;BME280;6810;63.824;20.288;2023-10-31T12:18:04;101252.19;;;-1.70;72.14
13476;BME280;6810;63.824;20.288;2023-10-31T12:20:51;101248.69;;;-1.68;72.31
13476;BME280;6810;63.824;20.288;2023-10-31T12:23:38;101245.22;;;-1.64;72.26
13476;BME280;6810;63.824;20.288;2023-10-31T12:26:26;101221.72;;;-1.70;71.48
13476;BME280;6810;63.824;20.288;2023-10-31T12:29:18;101237.38;;;-1.58;71.67
13476;BME280;6810;63.824;20.288;2023-10-31T12:32:05;101229.53;;;-1.53;72.46
13476;BME280;6810;63.824;20.288;2023-10-31T12:34:59;101221.69;;;-1.50;72.28
13476;BME280;6810;63.824;20.288;2023-10-31T12:37:47;101219.06;;;-1.46;71.85
13476;BME280;6810;63.824;20.288;2023-10-31T12:40:35;101219.94;;;-1.42;72.17
13476;BME280;6810;63.824;20.288;2023-10-31T12:43:22;101221.66;;;-1.38;71.76
13476;BME280;6810;63.824;20.288;2023-10-31T12:46:28;101213.81;;;-1.35;72.67
13476;BME280;6810;63.824;20.288;2023-10-31T12:49:20;101228.59;;;-1.30;71.79
13476;BME280;6810;63.824;20.288;2023-10-31T12:52:07;101225.13;;;-1.29;71.73
13476;BME280;6810;63.824;20.288;2023-10-31T12:54:54;101219.88;;;-1.23;72.59
13476;BME280;6810;63.824;20.288;2023-10-31T12:57:44;101222.47;;;-1.20;71.69
13476;BME280;6810;63.824;20.288;2023-10-31T13:00:33;101217.25;;;-1.18;72.54
13476;BME280;6810;63.824;20.288;2023-10-31T13:03:20;101218.13;;;-1.16;72.58
13476;BME280;6810;63.824;20.288;2023-10-31T13:06:15;101218.97;;;-1.16;71.88
13476;BME280;6810;63.824;20.288;2023-10-31T13:09:03;101221.59;;;-1.14;72.48
13476;BME280;6810;63.824;20.288;2023-10-31T13:11:51;101230.31;;;-1.14;72.34
13476;BME280;6810;63.824;20.288;2023-10-31T13:14:38;101224.19;;;-1.16;72.03
13476;BME280;6810;63.824;20.288;2023-10-31T13:17:25;101219.84;;;-1.17;71.88
13476;BME280;6810;63.824;20.288;2023-10-31T13:20:17;101221.59;;;-1.17;72.51
13476;BME280;6810;63.824;20.288;2023-10-31T13:23:04;101208.53;;;-1.25;71.94
13476;BME280;6810;63.824;20.288;2023-10-31T13:25:51;101228.59;;;-1.21;72.18
13476;BME280;6810;63.824;20.288;2023-10-31T13:28:38;101223.38;;;-1.25;72.52
13476;BME280;6810;63.824;20.288;2023-10-31T13:31:26;101232.97;;;-1.26;71.76
13476;BME280;6810;63.824;20.288;2023-10-31T13:34:13;101225.13;;;-1.29;71.87
13476;BME280;6810;63.824;20.288;2023-10-31T13:37:00;101214.69;;;-1.39;72.79
13476;BME280;6810;63.824;20.288;2023-10-31T13:39:47;101237.31;;;-1.34;72.06
13476;BME280;6810;63.824;20.288;2023-10-31T13:42:35;101232.09;;;-1.35;72.61
13476;BME280;6810;63.824;20.288;2023-10-31T13:45:22;101231.22;;;-1.39;72.21
13476;BME280;6810;63.824;20.288;2023-10-31T13:48:09;101235.59;;;-1.41;72.82
13476;BME280;6810;63.824;20.288;2023-10-31T13:50:56;101212.94;;;-1.51;71.61
13476;BME280;6810;63.824;20.288;2023-10-31T13:53:46;101227.78;;;-1.47;72.00
13476;BME280;6810;63.824;20.288;2023-10-31T13:56:34;101239.09;;;-1.48;72.73
13476;BME280;6810;63.824;20.288;2023-10-31T13:59:21;101234.75;;;-1.50;72.84
13476;BME280;6810;63.824;20.288;2023-10-31T14:02:08;101236.47;;;-1.52;71.88
13476;BME280;6810;63.824;20.288;2023-10-31T14:04:55;101233.03;;;-1.60;72.83
13476;BME280;6810;63.824;20.288;2023-10-31T14:07:42;101243.47;;;-1.56;72.43
13476;BME280;6810;63.824;20.288;2023-10-31T14:10:29;101233.00;;;-1.62;72.48
13476;BME280;6810;63.824;20.288;2023-10-31T14:13:17;101217.34;;;-1.71;72.86
13476;BME280;6810;63.824;20.288;2023-10-31T14:16:04;101236.50;;;-1.63;72.55
13476;BME280;6810;63.824;20.288;2023-10-31T14:18:51;101233.88;;;-1.66;72.73
13476;BME280;6810;63.824;20.288;2023-10-31T14:21:39;101226.06;;;-1.73;72.30
13476;BME280;6810;63.824;20.288;2023-10-31T14:24:26;101239.09;;;-1.69;72.94
13476;BME280;6810;63.824;20.288;2023-10-31T14:27:13;101230.41;;;-1.74;72.59
13476;BME280;6810;63.824;20.288;2023-10-31T14:30:00;101247.84;;;-1.73;72.44
13476;BME280;6810;63.824;20.288;2023-10-31T14:32:47;101235.63;;;-1.74;72.43
13476;BME280;6810;63.824;20.288;2023-10-31T14:35:34;101236.50;;;-1.77;71.94
13476;BME280;6810;63.824;20.288;2023-10-31T14:38:21;101220.84;;;-1.80;72.67
13476;BME280;6810;63.824;20.288;2023-10-31T14:41:08;101215.63;;;-1.84;72.23
13476;BME280;6810;63.824;20.288;2023-10-31T14:43:57;101217.34;;;-1.82;72.00
13476;BME280;6810;63.824;20.288;2023-10-31T14:46:44;101215.63;;;-1.84;72.03
13476;BME280;6810;63.824;20.288;2023-10-31T14:49:31;101211.25;;;-1.94;72.41
13476;BME280;6810;63.824;20.288;2023-10-31T14:52:18;101219.09;;;-1.88;72.66
13476;BME280;6810;63.824;20.288;2023-10-31T14:55:06;101215.63;;;-1.92;71.83
13476;BME280;6810;63.824;20.288;2023-10-31T14:57:53;101216.50;;;-1.93;72.84
13476;BME280;6810;63.824;20.288;2023-10-31T15:00:40;101215.63;;;-1.95;72.75
13476;BME280;6810;63.824;20.288;2023-10-31T15:03:27;101214.72;;;-1.98;72.78
13476;BME280;6810;63.824;20.288;2023-10-31T15:06:14;101211.25;;;-1.99;72.84
13476;BME280;6810;63.824;20.288;2023-10-31T15:09:02;101193.84;;;-2.12;71.52
13476;BME280;6810;63.824;20.288;2023-10-31T15:11:49;101214.72;;;-2.01;72.33
13476;BME280;6810;63.824;20.288;2023-10-31T15:14:36;101213.00;;;-2.02;71.79
13476;BME280;6810;63.824;20.288;2023-10-31T15:17:23;101206.03;;;-2.05;72.80
13476;BME280;6810;63.824;20.288;2023-10-31T15:20:11;101196.47;;;-2.07;71.85
13476;BME280;6810;63.824;20.288;2023-10-31T15:23:01;101201.69;;;-2.06;71.80
13476;BME280;6810;63.824;20.288;2023-10-31T15:25:48;101193.84;;;-2.10;71.51
13476;BME280;6810;63.824;20.288;2023-10-31T15:28:35;101208.63;;;-2.08;72.63
13476;BME280;6810;63.824;20.288;2023-10-31T15:31:22;101205.16;;;-2.08;72.27
13476;BME280;6810;63.824;20.288;2023-10-31T15:34:09;101183.41;;;-2.16;71.60
13476;BME280;6810;63.824;20.288;2023-10-31T15:36:56;101206.03;;;-2.09;72.68
13476;BME280;6810;63.824;20.288;2023-10-31T15:39:43;101199.94;;;-2.10;72.50
13476;BME280;6810;63.824;20.288;2023-10-31T15:42:30;101201.69;;;-2.10;71.44
13476;BME280;6810;63.824;20.288;2023-10-31T15:45:17;101193.84;;;-2.12;72.13
13476;BME280;6810;63.824;20.288;2023-10-31T15:48:05;101139.03;;;-2.40;71.95
13476;BME280;6810;63.824;20.288;2023-10-31T15:50:53;101192.97;;;-2.11;72.35
13476;BME280;6810;63.824;20.288;2023-10-31T15:53:40;101197.34;;;-2.11;72.19
13476;BME280;6810;63.824;20.288;2023-10-31T15:56:28;101182.53;;;-2.11;72.40
13476;BME280;6810;63.824;20.288;2023-10-31T15:59:16;101140.75;;;-2.36;71.73
13476;BME280;6810;63.824;20.288;2023-10-31T16:02:03;101180.78;;;-2.12;71.52
13476;BME280;6810;63.824;20.288;2023-10-31T16:04:50;101186.00;;;-2.10;71.73
13476;BME280;6810;63.824;20.288;2023-10-31T16:07:38;101149.47;;;-2.27;71.87
13476;BME280;6810;63.824;20.288;2023-10-31T16:10:25;101178.19;;;-2.10;72.54
13476;BME280;6810;63.824;20.288;2023-10-31T16:13:15;101168.63;;;-2.10;72.44
13476;BME280;6810;63.824;20.288;2023-10-31T16:16:02;101164.25;;;-2.11;71.46
13476;BME280;6810;63.824;20.288;2023-10-31T16:18:50;101160.78;;;-2.10;72.41
13476;BME280;6810;63.824;20.288;2023-10-31T16:21:37;101164.25;;;-2.08;72.38
13476;BME280;6810;63.824;20.288;2023-10-31T16:24:24;101166.00;;;-2.08;72.00
13476;BME280;6810;63.824;20.288;2023-10-31T16:27:11;101156.41;;;-2.11;72.03
13476;BME280;6810;63.824;20.288;2023-10-31T16:29:58;101156.41;;;-2.11;71.44
13476;BME280;6810;63.824;20.288;2023-10-31T16:32:45;101160.78;;;-2.08;71.34
13476;BME280;6810;63.824;20.288;2023-10-31T16:35:32;101167.75;;;-2.04;71.21
13476;BME280;6810;63.824;20.288;2023-10-31T16:38:19;101165.13;;;-2.04;72.25
13476;BME280;6810;63.824;20.288;2023-10-31T16:41:06;101174.69;;;-2.03;71.29
13476;BME280;6810;63.824;20.288;2023-10-31T16:43:53;101155.56;;;-2.02;71.20
13476;BME280;6810;63.824;20.288;2023-10-31T16:46:44;101140.75;;;-2.18;71.71
13476;BME280;6810;63.824;20.288;2023-10-31T16:49:31;101168.63;;;-2.04;71.94
13476;BME280;6810;63.824;20.288;2023-10-31T16:52:18;101172.97;;;-2.01;72.31
13476;BME280;6810;63.824;20.288;2023-10-31T16:55:06;101164.25;;;-2.03;71.80
13476;BME280;6810;63.824;20.288;2023-10-31T16:57:53;101165.13;;;-2.03;71.97
13476;BME280;6810;63.824;20.288;2023-10-31T17:00:40;101167.75;;;-2.04;72.34
13476;BME280;6810;63.824;20.288;2023-10-31T17:03:27;101177.31;;;-2.02;71.13
13476;BME280;6810;63.824;20.288;2023-10-31T17:06:14;101158.19;;;-2.05;71.83
13476;BME280;6810;63.824;20.288;2023-10-31T17:09:01;101161.63;;;-2.03;72.09
13476;BME280;6810;63.824;20.288;2023-10-31T17:11:48;101161.63;;;-2.02;72.27
13476;BME280;6810;63.824;20.288;2023-10-31T17:14:35;101166.00;;;-2.01;71.98
13476;BME280;6810;63.824;20.288;2023-10-31T17:17:22;101156.41;;;-2.00;71.29
13476;BME280;6810;63.824;20.288;2023-10-31T17:20:10;101156.41;;;-2.03;71.62
13476;BME280;6810;63.824;20.288;2023-10-31T17:22:57;101158.19;;;-2.02;71.66
13476;BME280;6810;63.824;20.288;2023-10-31T17:25:44;101159.91;;;-1.95;71.92
13476;BME280;6810;63.824;20.288;2023-10-31T17:28:31;101141.63;;;-1.98;71.31
13476;BME280;6810;63.824;20.288;2023-10-31T17:31:18;101153.81;;;-1.90;71.93
13476;BME280;6810;63.824;20.288;2023-10-31T17:34:05;101152.94;;;-1.87;71.50
13476;BME280;6810;63.824;20.288;2023-10-31T17:36:52;101152.06;;;-1.86;72.51
13476;BME280;6810;63.824;20.288;2023-10-31T17:39:39;101146.81;;;-1.83;72.36
13476;BME280;6810;63.824;20.288;2023-10-31T17:42:26;101150.31;;;-1.81;72.56
13476;BME280;6810;63.824;20.288;2023-10-31T17:45:13;101143.34;;;-1.79;71.26
13476;BME280;6810;63.824;20.288;2023-10-31T17:48:00;101141.59;;;-1.76;71.97
13476;BME280;6810;63.824;20.288;2023-10-31T17:50:48;101131.13;;;-1.74;71.50
13476;BME280;6810;63.824;20.288;2023-10-31T17:53:36;101134.63;;;-1.72;71.45
13476;BME280;6810;63.824;20.288;2023-10-31T17:56:23;101138.94;;;-1.68;72.57
13476;BME280;6810;63.824;20.288;2023-10-31T17:59:10;101144.16;;;-1.65;72.42
13476;BME280;6810;63.824;20.288;2023-10-31T18:01:57;101145.03;;;-1.63;71.56
13476;BME280;6810;63.824;20.288;2023-10-31T18:04:44;101135.47;;;-1.61;71.65
13476;BME280;6810;63.824;20.288;2023-10-31T18:07:31;101133.72;;;-1.57;72.20
13476;BME280;6810;63.824;20.288;2023-10-31T18:10:18;101129.34;;;-1.54;72.67
13476;BME280;6810;63.824;20.288;2023-10-31T18:13:05;101125.00;;;-1.53;72.51
13476;BME280;6810;63.824;20.288;2023-10-31T18:15:52;101132.81;;;-1.49;71.88
13476;BME280;6810;63.824;20.288;2023-10-31T18:18:39;101123.22;;;-1.45;71.58
13476;BME280;6810;63.824;20.288;2023-10-31T18:21:26;101115.38;;;-1.44;71.76
13476;BME280;6810;63.824;20.288;2023-10-31T18:24:13;101111.88;;;-1.43;72.81
13476;BME280;6810;63.824;20.288;2023-10-31T18:27:00;101113.59;;;-1.37;72.36
13476;BME280;6810;63.824;20.288;2023-10-31T18:29:50;101080.56;;;-1.53;71.88
13476;BME280;6810;63.824;20.288;2023-10-31T18:32:37;101119.69;;;-1.31;72.78
13476;BME280;6810;63.824;20.288;2023-10-31T18:35:24;101103.13;;;-1.37;72.92
13476;BME280;6810;63.824;20.288;2023-10-31T18:38:11;101105.72;;;-1.25;71.92
13476;BME280;6810;63.824;20.288;2023-10-31T18:40:58;101103.09;;;-1.22;72.03
13476;BME280;6810;63.824;20.288;2023-10-31T18:43:45;101111.78;;;-1.19;72.85
13476;BME280;6810;63.824;20.288;2023-10-31T18:46:52;101093.47;;;-1.16;72.57
13476;BME280;6810;63.824;20.288;2023-10-31T18:49:39;101091.72;;;-1.14;72.14
13476;BME280;6810;63.824;20.288;2023-10-31T18:52:26;101089.97;;;-1.10;72.38
13476;BME280;6810;63.824;20.288;2023-10-31T18:55:13;101089.94;;;-1.07;72.81
13476;BME280;6810;63.824;20.288;2023-10-31T18:58:00;101091.66;;;-1.03;72.44
13476;BME280;6810;63.824;20.288;2023-10-31T19:00:47;101086.44;;;-1.03;72.13
13476;BME280;6810;63.824;20.288;2023-10-31T19:03:34;101086.41;;;-1.02;73.02
13476;BME280;6810;63.824;20.288;2023-10-31T19:06:22;101099.47;;;-0.96;72.79
13476;BME280;6810;63.824;20.288;2023-10-31T19:09:09;101105.56;;;-0.92;72.63
13476;BME280;6810;63.824;20.288;2023-10-31T19:11:56;101103.81;;;-0.93;72.87
13476;BME280;6810;63.824;20.288;2023-10-31T19:14:43;101108.13;;;-0.88;72.30
13476;BME280;6810;63.824;20.288;2023-10-31T19:17:30;101107.25;;;-0.88;73.14
13476;BME280;6810;63.824;20.288;2023-10-31T19:20:17;101115.06;;;-0.82;73.09
13476;BME280;6810;63.824;20.288;2023-10-31T19:23:04;101092.47;;;-0.94;72.33
13476;BME280;6810;63.824;20.288;2023-10-31T19:25:51;101115.03;;;-0.78;72.38
13476;BME280;6810;63.824;20.288;2023-10-31T19:28:38;101115.03;;;-0.76;73.01
13476;BME280;6810;63.824;20.288;2023-10-31T19:31:26;101114.16;;;-0.74;72.66
13476;BME280;6810;63.824;20.288;2023-10-31T19:34:13;101106.31;;;-0.72;73.33
13476;BME280;6810;63.824;20.288;2023-10-31T19:37:00;101076.75;;;-0.91;72.79
13476;BME280;6810;63.824;20.288;2023-10-31T19:39:47;101108.00;;;-0.67;72.53
13476;BME280;6810;63.824;20.288;2023-10-31T19:42:34;101107.13;;;-0.67;73.26
13476;BME280;6810;63.824;20.288;2023-10-31T19:45:21;101108.84;;;-0.63;72.89
13476;BME280;6810;63.824;20.288;2023-10-31T19:48:08;101107.13;;;-0.63;72.82
13476;BME280;6810;63.824;20.288;2023-10-31T19:50:55;101096.63;;;-0.61;72.67
13476;BME280;6810;63.824;20.288;2023-10-31T19:53:42;101099.22;;;-0.58;72.84
13476;BME280;6810;63.824;20.288;2023-10-31T19:56:29;101093.97;;;-0.57;73.03
13476;BME280;6810;63.824;20.288;2023-10-31T19:59:16;101096.56;;;-0.54;72.82
13476;BME280;6810;63.824;20.288;2023-10-31T20:02:03;101086.09;;;-0.52;73.02
13476;BME280;6810;63.824;20.288;2023-10-31T20:04:31;101105.25;;;-0.50;73.05
13476;BME280;6810;63.824;20.288;2023-10-31T20:06:58;101097.38;;;-0.49;72.77
13476;BME280;6810;63.824;20.288;2023-10-31T20:09:24;101103.50;;;-0.47;72.85
13476;BME280;6810;63.824;20.288;2023-10-31T20:12:12;101078.28;;;-0.55;73.53
13476;BME280;6810;63.824;20.288;2023-10-31T20:15:01;101085.13;;;-0.44;73.41
13476;BME280;6810;63.824;20.288;2023-10-31T20:17:48;101075.53;;;-0.42;73.07
13476;BME280;6810;63.824;20.288;2023-10-31T20:20:35;101085.09;;;-0.39;73.52
13476;BME280;6810;63.824;20.288;2023-10-31T20:23:22;101061.63;;;-0.50;73.01
13476;BME280;6810;63.824;20.288;2023-10-31T20:26:09;101080.72;;;-0.36;73.03
13476;BME280;6810;63.824;20.288;2023-10-31T20:28:57;101065.03;;;-0.39;73.20
13476;BME280;6810;63.824;20.288;2023-10-31T20:31:44;101077.19;;;-0.33;73.04
13476;BME280;6810;63.824;20.288;2023-10-31T20:34:31;101072.81;;;-0.31;73.51
13476;BME280;6810;63.824;20.288;2023-10-31T20:37:18;101072.78;;;-0.28;73.23
13476;BME280;6810;63.824;20.288;2023-10-31T20:40:06;101064.03;;;-0.27;73.12
13476;BME280;6810;63.824;20.288;2023-10-31T20:42:53;101070.16;;;-0.25;73.51
13476;BME280;6810;63.824;20.288;2023-10-31T20:45:40;101028.47;;;-0.49;73.20
13476;BME280;6810;63.824;20.288;2023-10-31T20:48:27;101062.28;;;-0.24;73.38
13476;BME280;6810;63.824;20.288;2023-10-31T20:51:14;101064.88;;;-0.21;73.44
13476;BME280;6810;63.824;20.288;2023-10-31T20:54:01;101074.44;;;-0.18;73.33
13476;BME280;6810;63.824;20.288;2023-10-31T20:56:48;101074.41;;;-0.15;73.34
13476;BME280;6810;63.824;20.288;2023-10-31T20:59:35;101071.75;;;-0.12;73.33
13476;BME280;6810;63.824;20.288;2023-10-31T21:02:22;101076.13;;;-0.10;73.48
13476;BME280;6810;63.824;20.288;2023-10-31T21:05:09;101067.38;;;-0.09;73.64
13476;BME280;6810;63.824;20.288;2023-10-31T21:07:56;101055.97;;;-0.06;73.52
13476;BME280;6810;63.824;20.288;2023-10-31T21:10:43;101062.97;;;-0.04;73.22
13476;BME280;6810;63.824;20.288;2023-10-31T21:13:31;101054.22;;;-0.03;73.49
13476;BME280;6810;63.824;20.288;2023-10-31T21:16:17;101064.66;;;0.00;73.50
13476;BME280;6810;63.824;20.288;2023-10-31T21:19:05;101024.59;;;-0.11;73.33
13476;BME280;6810;63.824;20.288;2023-10-31T21:22:03;101038.50;;;-0.03;73.79
13476;BME280;6810;63.824;20.288;2023-10-31T21:24:50;101051.50;;;0.07;73.47
13476;BME280;6810;63.824;20.288;2023-10-31T21:27:37;101023.69;;;-0.05;74.00
13476;BME280;6810;63.824;20.288;2023-10-31T21:30:24;101048.84;;;0.10;73.79
13476;BME280;6810;63.824;20.288;2023-10-31T21:33:11;101044.47;;;0.12;73.66
13476;BME280;6810;63.824;20.288;2023-10-31T21:35:58;101042.69;;;0.15;73.67
13476;BME280;6810;63.824;20.288;2023-10-31T21:38:45;101047.91;;;0.17;73.61